Latest Coastal Weather Observations for Cato Island

IDQ60701

Issued at 7:25 pm EST Thursday 18 December 2014 (issued every 10 minutes, with the page automatically refreshed every 10 minutes)

About coastal observations | Map of coastal stations | Coastal observations for QLD | Marine services | Other Formats
Station Details ID: 200601 Name: CATO ISLAND Lat: -23.25 Lon: 155.54 Height: 6.3 m
Data from the previous 72 hours. | See also: Recent months for locations in Queensland
Date/Time
EST
Temp

°C
Wind Pressure Rain
since 9am
mm
Weather Cloud Vis
km
Sea
Height
m
Swell
Dir
 
Speed
knots
Gust
knots
hPa Trend Height
m
Period
s
Dir
18/07:00pm 25.5 N 9 12 1012.2 - - - - - - - - -
18/06:30pm 25.7 N 8 10 1012.1 - - - - - - - - -
18/06:00pm 25.9 N 9 11 1011.7 - - - - - - - - -
18/05:00pm 26.7 N 11 13 1010.8 - - - - - - - - -
18/04:30pm 26.7 NNW 11 13 1010.5 - - - - - - - - -
18/04:00pm 27.1 NNW 11 13 1010.4 - - - - - - - - -
18/03:30pm 27.3 N 11 14 1010.6 - - - - - - - - -
18/03:00pm 28.2 NNW 11 13 1010.6 - - - - - - - - -
18/02:30pm 27.5 NNW 11 13 1011.4 - - - - - - - - -
18/02:00pm 27.6 NNW 10 13 1011.6 - - - - - - - - -
18/01:30pm 28.1 NNW 10 12 1012.1 - - - - - - - - -
18/01:00pm 28.4 N 9 11 1012.5 - - - - - - - - -
18/12:30pm 28.3 N 9 11 1012.8 - - - - - - - - -
18/12:00pm 28.5 NNW 9 11 1013.0 - - - - - - - - -
18/11:30am 28.2 N 10 12 1013.4 - - - - - - - - -
18/11:00am 28.7 N 11 14 1013.1 - - - - - - - - -
18/10:00am 28.0 N 10 - 1013.1 - - - - - - - - -
18/09:30am 27.9 N 8 11 1013.3 - - - - - - - - -
18/09:00am 28.0 NNE 8 10 1013.3 - - - - - - - - -
18/08:30am 27.7 N 9 11 1013.3 - - - - - - - - -
18/08:00am 27.0 N 10 12 1013.5 - - - - - - - - -
18/07:30am 26.9 N 10 12 1013.5 - - - - - - - - -
18/07:00am 26.4 N 8 10 1013.5 - - - - - - - - -
18/06:30am 26.1 N 9 11 1013.2 - - - - - - - - -
18/06:00am 25.8 N 7 9 1013.1 - - - - - - - - -
18/05:30am 25.2 N 8 11 1012.6 - - - - - - - - -
18/05:00am 25.0 NNW 9 11 1012.2 - - - - - - - - -
18/04:30am 24.8 N 8 10 1011.7 - - - - - - - - -
18/04:00am 24.8 N 8 10 1011.6 - - - - - - - - -
18/03:30am 24.9 N 9 11 1011.3 - - - - - - - - -
18/03:00am 24.8 N 11 13 1010.9 - - - - - - - - -
18/02:30am 24.9 N 10 11 1011.0 - - - - - - - - -
18/02:00am 25.0 N 12 15 1010.5 - - - - - - - - -
18/01:30am 25.0 N 11 13 1010.5 - - - - - - - - -
18/01:00am 25.1 N 11 13 1010.5 - - - - - - - - -
18/12:30am 25.2 N 12 15 1010.7 - - - - - - - - -
18/12:00am 25.2 N 12 14 1011.1 - - - - - - - - -
 
Date/Time
EST
Temp

°C
Wind Pressure Rain
since 9am
mm
Weather Cloud Vis
km
Sea
Height
m
Swell
Dir
 
Speed
knots
Gust
knots
hPa Trend Height
m
Period
s
Dir
17/11:30pm 25.2 N 11 13 1011.2 - - - - - - - - -
17/11:00pm 25.2 N 11 13 1011.2 - - - - - - - - -
17/10:30pm 25.2 N 10 11 1011.3 - - - - - - - - -
17/10:00pm 25.3 N 11 13 1011.6 - - - - - - - - -
17/09:30pm 25.4 N 11 13 1011.3 - - - - - - - - -
17/09:00pm 25.4 N 11 13 1011.0 - - - - - - - - -
17/08:30pm 25.4 N 11 13 1010.5 - - - - - - - - -
17/08:00pm 25.5 N 11 13 1010.2 - - - - - - - - -
17/07:30pm 25.6 N 11 13 1010.1 - - - - - - - - -
17/07:00pm 25.7 NNW 11 - 1009.8 - - - - - - - - -
17/06:30pm 25.7 N 11 12 1009.6 - - - - - - - - -
17/06:00pm 26.0 N 10 11 1009.2 - - - - - - - - -
17/05:30pm 26.2 NNW 11 13 1008.7 - - - - - - - - -
17/05:00pm 26.4 NNW 11 13 1008.6 - - - - - - - - -
17/04:30pm 26.8 NNW 10 12 1008.4 - - - - - - - - -
17/04:00pm 26.8 NNW 11 13 1008.5 - - - - - - - - -
17/03:30pm 27.2 NW 11 13 1008.5 - - - - - - - - -
17/03:00pm 26.9 NNW 12 14 1008.6 - - - - - - - - -
17/02:30pm 27.3 NW 10 12 1008.6 - - - - - - - - -
17/02:00pm 27.2 NNW 12 - 1008.9 - - - - - - - - -
17/01:30pm 27.3 NNW 12 15 1008.8 - - - - - - - - -
17/01:00pm 27.8 NNW 10 12 1009.4 - - - - - - - - -
17/12:30pm 27.4 NW 10 11 1009.6 - - - - - - - - -
17/12:00pm 27.4 NNW 8 10 1009.7 - - - - - - - - -
17/11:30am 27.7 NNW 8 10 1010.2 - - - - - - - - -
17/11:00am 27.9 N 7 - 1010.0 - - - - - - - - -
17/10:30am 27.7 N 11 14 1009.6 - - - - - - - - -
17/10:00am 27.8 N 10 12 1010.0 - - - - - - - - -
17/09:30am 27.0 N 9 11 1010.1 - - - - - - - - -
17/09:00am 26.9 N 10 12 1009.9 - - - - - - - - -
17/08:30am 26.8 NNW 7 11 1010.2 - - - - - - - - -
17/08:00am 26.9 NNW 6 8 1010.3 - - - - - - - - -
17/07:30am 26.5 NW 7 9 1010.6 - - - - - - - - -
17/07:00am 26.3 NW 9 12 1010.3 - - - - - - - - -
17/06:30am 25.4 NW 8 11 1010.1 - - - - - - - - -
17/06:00am 25.0 NW 8 11 1010.0 - - - - - - - - -
17/05:30am 24.6 NW 9 12 1009.5 - - - - - - - - -
17/05:00am 23.9 NW 9 12 1009.1 - - - - - - - - -
17/04:30am 23.9 NNW 10 11 1008.4 - - - - - - - - -
17/04:00am 23.8 NNW 10 13 1008.0 - - - - - - - - -
17/03:30am 23.8 NNW 10 11 1007.7 - - - - - - - - -
17/03:00am 23.4 N 9 11 1007.7 - - - - - - - - -
17/02:30am 23.2 N 6 9 1007.6 - - - - - - - - -
17/02:00am 23.3 N 7 9 1007.8 - - - - - - - - -
17/01:30am 23.5 NNW 7 9 1008.1 - - - - - - - - -
17/01:00am 23.2 N 6 10 1008.2 - - - - - - - - -
17/12:30am 23.1 N 5 9 1008.5 - - - - - - - - -
17/12:00am 23.2 NNW 5 7 1009.0 - - - - - - - - -
 
Date/Time
EST
Temp

°C
Wind Pressure Rain
since 9am
mm
Weather Cloud Vis
km
Sea
Height
m
Swell
Dir
 
Speed
knots
Gust
knots
hPa Trend Height
m
Period
s
Dir
16/11:30pm 22.9 N 4 5 1009.0 - - - - - - - - -
16/11:00pm 22.9 NNE 3 4 1009.6 - - - - - - - - -
16/10:30pm 23.3 CALM 0 0 1009.9 - - - - - - - - -
16/10:00pm 23.5 E 1 3 1009.9 - - - - - - - - -
16/09:30pm 23.5 E 4 5 1009.7 - - - - - - - - -
16/09:00pm 23.9 ESE 4 6 1009.6 - - - - - - - - -
16/08:30pm 23.5 E 3 4 1009.3 - - - - - - - - -
16/08:00pm 23.9 E 4 - 1009.0 - - - - - - - - -
16/07:30pm 24.0 ESE 6 7 1008.7 - - - - - - - - -
16/07:00pm 24.1 SE 6 7 1008.6 - - - - - - - - -
16/06:30pm 24.1 SSW 4 7 1008.6 - - - - - - - - -
16/06:00pm 24.6 W 4 7 1008.8 - - - - - - - - -
16/05:30pm 24.9 S 4 5 1008.3 - - - - - - - - -
16/05:00pm 25.2 SSW 6 8 1008.5 - - - - - - - - -
16/04:30pm 24.7 SSE 8 9 1007.6 - - - - - - - - -
16/04:00pm 25.0 S 9 12 1007.8 - - - - - - - - -
16/03:30pm 25.3 S 10 11 1007.9 - - - - - - - - -
16/03:00pm 25.5 SSW 10 12 1008.3 - - - - - - - - -
16/02:30pm 25.6 S 10 12 1008.3 - - - - - - - - -
16/02:00pm 25.2 S 9 13 1008.8 - - - - - - - - -
16/01:30pm 25.4 S 9 12 1009.0 - - - - - - - - -
16/01:00pm 25.7 S 10 13 1009.2 - - - - - - - - -
16/12:30pm 25.3 S 12 14 1009.5 - - - - - - - - -
16/12:00pm 25.4 S 12 13 1009.7 - - - - - - - - -
16/11:30am 25.2 S 12 15 1009.9 - - - - - - - - -
16/11:00am 25.7 S 13 - 1010.3 - - - - - - - - -
16/10:30am 25.4 S 12 14 1010.2 - - - - - - - - -
16/10:00am 25.3 S 12 14 1010.6 - - - - - - - - -
16/09:30am 25.1 S 12 13 1010.7 - - - - - - - - -
16/09:00am 25.0 S 12 14 1010.6 - - - - - - - - -
16/08:30am 25.1 S 14 16 1010.5 - - - - - - - - -
16/08:00am 24.9 S 12 15 1010.3 - - - - - - - - -
16/07:30am 24.6 S 14 15 1010.2 - - - - - - - - -
16/07:00am 24.3 S 13 16 1010.0 - - - - - - - - -
16/06:30am 24.2 S 13 16 1009.8 - - - - - - - - -
16/06:00am 24.0 S 14 16 1009.3 - - - - - - - - -
16/05:30am 23.7 S 13 17 1008.8 - - - - - - - - -
16/05:00am 23.5 S 13 16 1008.8 - - - - - - - - -
16/04:30am 23.3 S 13 16 1008.5 - - - - - - - - -
16/04:00am 23.3 S 13 16 1008.6 - - - - - - - - -
16/03:30am 23.1 S 12 16 1008.5 - - - - - - - - -
16/03:00am 23.4 S 13 16 1008.5 - - - - - - - - -
16/02:30am 23.1 S 13 17 1008.4 - - - - - - - - -
16/02:00am 23.4 S 13 17 1008.5 - - - - - - - - -
16/01:30am 23.4 S 12 16 1008.6 - - - - - - - - -
16/01:00am 23.6 S 14 18 1008.7 - - - - - - - - -
16/12:30am 23.6 S 13 17 1008.8 - - - - - - - - -
16/12:00am 23.7 S 13 17 1009.3 - - - - - - - - -
 
Date/Time
EST
Temp

°C
Wind Pressure Rain
since 9am
mm
Weather Cloud Vis
km
Sea
Height
m
Swell
Dir
 
Speed
knots
Gust
knots
hPa Trend Height
m
Period
s
Dir
15/11:30pm 23.8 S 14 16 1009.5 - - - - - - - - -
15/11:00pm 24.1 SSE 15 18 1009.8 - - - - - - - - -
15/10:30pm 24.1 SSE 15 21 1010.2 - - - - - - - - -
15/10:00pm 24.1 S 16 20 1010.3 - - - - - - - - -
15/09:30pm 24.2 S 17 21 1010.4 - - - - - - - - -
15/09:00pm 24.3 S 18 22 1010.3 - - - - - - - - -
15/08:30pm 24.4 S 18 22 1010.2 - - - - - - - - -
15/08:00pm 24.4 S 19 22 1009.8 - - - - - - - - -
15/07:30pm 24.5 S 19 23 1009.6 - - - - - - - - -

Other Formats:

Comma delimited format used in spreadsheet applications
http://www.bom.gov.au/fwo/IDQ60701/IDQ60701.94394.axf

JavaScript Object Notation format (JSON) in row-major order
http://www.bom.gov.au/fwo/IDQ60701/IDQ60701.94394.json